sensor_id;sensor_type;location;lat;lon;timestamp;P1;durP1;ratioP1;P2;durP2;ratioP2
76023;SDS011;64719;52.124;6.226;2023-08-17T00:01:28;4.65;;;2.28;;
76023;SDS011;64719;52.124;6.226;2023-08-17T00:03:54;4.22;;;2.30;;
76023;SDS011;64719;52.124;6.226;2023-08-17T00:06:21;5.35;;;2.20;;
76023;SDS011;64719;52.124;6.226;2023-08-17T00:08:47;4.07;;;2.33;;
76023;SDS011;64719;52.124;6.226;2023-08-17T00:11:14;9.23;;;2.75;;
76023;SDS011;64719;52.124;6.226;2023-08-17T00:13:41;6.35;;;2.38;;
76023;SDS011;64719;52.124;6.226;2023-08-17T00:16:08;3.45;;;2.45;;
76023;SDS011;64719;52.124;6.226;2023-08-17T00:23:28;4.25;;;2.10;;
76023;SDS011;64719;52.124;6.226;2023-08-17T00:25:55;6.63;;;2.70;;
76023;SDS011;64719;52.124;6.226;2023-08-17T00:28:22;6.43;;;2.67;;
76023;SDS011;64719;52.124;6.226;2023-08-17T00:30:50;5.53;;;2.80;;
76023;SDS011;64719;52.124;6.226;2023-08-17T00:33:18;5.63;;;2.60;;
76023;SDS011;64719;52.124;6.226;2023-08-17T00:38:11;6.20;;;2.63;;
76023;SDS011;64719;52.124;6.226;2023-08-17T00:40:38;5.07;;;2.42;;
76023;SDS011;64719;52.124;6.226;2023-08-17T00:43:04;3.65;;;2.33;;
76023;SDS011;64719;52.124;6.226;2023-08-17T00:45:31;4.55;;;2.40;;
76023;SDS011;64719;52.124;6.226;2023-08-17T00:47:58;7.32;;;2.80;;
76023;SDS011;64719;52.124;6.226;2023-08-17T00:50:26;6.32;;;2.75;;
76023;SDS011;64719;52.124;6.226;2023-08-17T00:52:55;5.82;;;2.88;;
76023;SDS011;64719;52.124;6.226;2023-08-17T00:55:22;4.63;;;2.40;;
76023;SDS011;64719;52.124;6.226;2023-08-17T00:57:50;6.20;;;2.70;;
76023;SDS011;64719;52.124;6.226;2023-08-17T01:00:17;5.85;;;2.97;;
76023;SDS011;64719;52.124;6.226;2023-08-17T01:02:44;5.18;;;2.72;;
76023;SDS011;64719;52.124;6.226;2023-08-17T01:05:12;6.07;;;2.70;;
76023;SDS011;64719;52.124;6.226;2023-08-17T01:07:40;5.28;;;2.38;;
76023;SDS011;64719;52.124;6.226;2023-08-17T01:10:07;8.35;;;3.17;;
76023;SDS011;64719;52.124;6.226;2023-08-17T01:12:36;6.18;;;2.40;;
76023;SDS011;64719;52.124;6.226;2023-08-17T01:15:09;5.30;;;2.53;;
76023;SDS011;64719;52.124;6.226;2023-08-17T01:17:42;6.88;;;2.65;;
76023;SDS011;64719;52.124;6.226;2023-08-17T01:20:12;7.03;;;2.85;;
76023;SDS011;64719;52.124;6.226;2023-08-17T01:22:45;4.53;;;2.88;;
76023;SDS011;64719;52.124;6.226;2023-08-17T01:25:16;3.53;;;2.72;;
76023;SDS011;64719;52.124;6.226;2023-08-17T01:27:44;5.95;;;2.80;;
76023;SDS011;64719;52.124;6.226;2023-08-17T01:30:12;4.47;;;2.53;;
76023;SDS011;64719;52.124;6.226;2023-08-17T01:32:42;8.05;;;2.60;;
76023;SDS011;64719;52.124;6.226;2023-08-17T01:35:15;4.32;;;2.95;;
76023;SDS011;64719;52.124;6.226;2023-08-17T01:37:50;7.22;;;2.75;;
76023;SDS011;64719;52.124;6.226;2023-08-17T01:40:20;5.85;;;2.90;;
76023;SDS011;64719;52.124;6.226;2023-08-17T01:42:49;3.70;;;2.60;;
76023;SDS011;64719;52.124;6.226;2023-08-17T01:47:43;5.45;;;2.70;;
76023;SDS011;64719;52.124;6.226;2023-08-17T01:50:10;9.43;;;2.80;;
76023;SDS011;64719;52.124;6.226;2023-08-17T01:52:36;4.53;;;3.00;;
76023;SDS011;64719;52.124;6.226;2023-08-17T01:55:03;4.18;;;2.47;;
76023;SDS011;64719;52.124;6.226;2023-08-17T01:57:32;6.82;;;2.80;;
76023;SDS011;64719;52.124;6.226;2023-08-17T02:00:00;4.88;;;2.50;;
76023;SDS011;64719;52.124;6.226;2023-08-17T02:04:53;7.35;;;2.78;;
76023;SDS011;64719;52.124;6.226;2023-08-17T02:07:19;4.43;;;2.45;;
76023;SDS011;64719;52.124;6.226;2023-08-17T02:09:46;4.95;;;2.53;;
76023;SDS011;64719;52.124;6.226;2023-08-17T02:12:12;7.00;;;3.10;;
76023;SDS011;64719;52.124;6.226;2023-08-17T02:14:40;5.20;;;2.78;;
76023;SDS011;64719;52.124;6.226;2023-08-17T02:17:07;6.18;;;2.80;;
76023;SDS011;64719;52.124;6.226;2023-08-17T02:19:33;6.78;;;2.53;;
76023;SDS011;64719;52.124;6.226;2023-08-17T02:22:01;6.65;;;2.42;;
76023;SDS011;64719;52.124;6.226;2023-08-17T02:26:55;5.40;;;2.45;;
76023;SDS011;64719;52.124;6.226;2023-08-17T02:29:21;5.60;;;2.55;;
76023;SDS011;64719;52.124;6.226;2023-08-17T02:31:49;7.15;;;3.15;;
76023;SDS011;64719;52.124;6.226;2023-08-17T02:34:16;8.98;;;3.00;;
76023;SDS011;64719;52.124;6.226;2023-08-17T02:36:42;3.03;;;2.35;;
76023;SDS011;64719;52.124;6.226;2023-08-17T02:39:09;4.88;;;2.28;;
76023;SDS011;64719;52.124;6.226;2023-08-17T02:41:35;5.72;;;2.60;;
76023;SDS011;64719;52.124;6.226;2023-08-17T02:44:02;5.15;;;2.75;;
76023;SDS011;64719;52.124;6.226;2023-08-17T02:46:29;4.57;;;3.03;;
76023;SDS011;64719;52.124;6.226;2023-08-17T02:48:57;5.82;;;3.13;;
76023;SDS011;64719;52.124;6.226;2023-08-17T02:51:24;3.38;;;2.53;;
76023;SDS011;64719;52.124;6.226;2023-08-17T02:53:50;4.95;;;2.35;;
76023;SDS011;64719;52.124;6.226;2023-08-17T02:56:17;4.60;;;2.50;;
76023;SDS011;64719;52.124;6.226;2023-08-17T02:58:43;4.45;;;2.50;;
76023;SDS011;64719;52.124;6.226;2023-08-17T03:01:10;4.68;;;2.72;;
76023;SDS011;64719;52.124;6.226;2023-08-17T03:03:37;5.55;;;2.45;;
76023;SDS011;64719;52.124;6.226;2023-08-17T03:06:05;5.05;;;2.50;;
76023;SDS011;64719;52.124;6.226;2023-08-17T03:10:58;6.68;;;2.30;;
76023;SDS011;64719;52.124;6.226;2023-08-17T03:13:24;5.68;;;2.30;;
76023;SDS011;64719;52.124;6.226;2023-08-17T03:15:51;4.18;;;2.30;;
76023;SDS011;64719;52.124;6.226;2023-08-17T03:18:17;5.07;;;2.58;;
76023;SDS011;64719;52.124;6.226;2023-08-17T03:20:44;6.47;;;2.60;;
76023;SDS011;64719;52.124;6.226;2023-08-17T03:23:12;9.38;;;2.70;;
76023;SDS011;64719;52.124;6.226;2023-08-17T03:25:39;6.30;;;2.55;;
76023;SDS011;64719;52.124;6.226;2023-08-17T03:28:05;5.15;;;3.08;;
76023;SDS011;64719;52.124;6.226;2023-08-17T03:30:32;5.93;;;3.03;;
76023;SDS011;64719;52.124;6.226;2023-08-17T03:32:59;8.57;;;2.63;;
76023;SDS011;64719;52.124;6.226;2023-08-17T03:35:25;6.95;;;2.53;;
76023;SDS011;64719;52.124;6.226;2023-08-17T03:37:52;6.05;;;2.47;;
76023;SDS011;64719;52.124;6.226;2023-08-17T03:40:20;5.93;;;2.45;;
76023;SDS011;64719;52.124;6.226;2023-08-17T03:42:46;5.28;;;2.70;;
76023;SDS011;64719;52.124;6.226;2023-08-17T03:45:13;5.07;;;2.65;;
76023;SDS011;64719;52.124;6.226;2023-08-17T03:47:39;6.68;;;2.60;;
76023;SDS011;64719;52.124;6.226;2023-08-17T03:50:06;4.13;;;2.50;;
76023;SDS011;64719;52.124;6.226;2023-08-17T03:52:34;6.93;;;3.45;;
76023;SDS011;64719;52.124;6.226;2023-08-17T03:55:01;9.90;;;3.53;;
76023;SDS011;64719;52.124;6.226;2023-08-17T03:57:29;6.28;;;2.25;;
76023;SDS011;64719;52.124;6.226;2023-08-17T03:59:56;5.85;;;2.42;;
76023;SDS011;64719;52.124;6.226;2023-08-17T04:02:22;5.70;;;3.00;;
76023;SDS011;64719;52.124;6.226;2023-08-17T04:04:49;6.65;;;2.80;;
76023;SDS011;64719;52.124;6.226;2023-08-17T04:07:20;5.47;;;2.60;;
76023;SDS011;64719;52.124;6.226;2023-08-17T04:09:47;4.60;;;2.85;;
76023;SDS011;64719;52.124;6.226;2023-08-17T04:12:13;8.25;;;2.85;;
76023;SDS011;64719;52.124;6.226;2023-08-17T04:14:41;5.20;;;2.70;;
76023;SDS011;64719;52.124;6.226;2023-08-17T04:17:08;6.88;;;3.10;;
76023;SDS011;64719;52.124;6.226;2023-08-17T04:19:35;3.35;;;2.35;;
76023;SDS011;64719;52.124;6.226;2023-08-17T04:22:01;6.25;;;2.90;;
76023;SDS011;64719;52.124;6.226;2023-08-17T04:24:28;5.80;;;2.42;;
76023;SDS011;64719;52.124;6.226;2023-08-17T04:26:54;5.30;;;2.60;;
76023;SDS011;64719;52.124;6.226;2023-08-17T04:29:21;6.18;;;3.05;;
76023;SDS011;64719;52.124;6.226;2023-08-17T04:31:49;7.68;;;3.10;;
76023;SDS011;64719;52.124;6.226;2023-08-17T04:34:16;5.88;;;2.70;;
76023;SDS011;64719;52.124;6.226;2023-08-17T04:36:42;4.63;;;2.97;;
76023;SDS011;64719;52.124;6.226;2023-08-17T04:39:09;8.20;;;3.53;;
76023;SDS011;64719;52.124;6.226;2023-08-17T04:41:35;5.78;;;3.03;;
76023;SDS011;64719;52.124;6.226;2023-08-17T04:44:02;6.65;;;2.60;;
76023;SDS011;64719;52.124;6.226;2023-08-17T04:46:29;6.32;;;2.60;;
76023;SDS011;64719;52.124;6.226;2023-08-17T04:48:57;5.03;;;2.63;;
76023;SDS011;64719;52.124;6.226;2023-08-17T04:51:23;5.63;;;2.83;;
76023;SDS011;64719;52.124;6.226;2023-08-17T04:53:50;5.25;;;2.60;;
76023;SDS011;64719;52.124;6.226;2023-08-17T04:56:17;6.05;;;2.65;;
76023;SDS011;64719;52.124;6.226;2023-08-17T04:58:43;6.18;;;2.60;;
76023;SDS011;64719;52.124;6.226;2023-08-17T05:01:10;7.10;;;2.90;;
76023;SDS011;64719;52.124;6.226;2023-08-17T05:03:36;3.67;;;2.63;;
76023;SDS011;64719;52.124;6.226;2023-08-17T05:06:04;5.28;;;2.42;;
76023;SDS011;64719;52.124;6.226;2023-08-17T05:08:31;5.15;;;2.47;;
76023;SDS011;64719;52.124;6.226;2023-08-17T05:10:57;5.28;;;2.80;;
76023;SDS011;64719;52.124;6.226;2023-08-17T05:13:24;6.65;;;2.50;;
76023;SDS011;64719;52.124;6.226;2023-08-17T05:15:51;5.72;;;2.50;;
76023;SDS011;64719;52.124;6.226;2023-08-17T05:18:17;6.43;;;2.50;;
76023;SDS011;64719;52.124;6.226;2023-08-17T05:20:44;6.25;;;2.45;;
76023;SDS011;64719;52.124;6.226;2023-08-17T05:23:12;4.63;;;2.65;;
76023;SDS011;64719;52.124;6.226;2023-08-17T05:25:38;5.80;;;3.00;;
76023;SDS011;64719;52.124;6.226;2023-08-17T05:28:05;6.32;;;2.45;;
76023;SDS011;64719;52.124;6.226;2023-08-17T05:30:32;5.50;;;2.30;;
76023;SDS011;64719;52.124;6.226;2023-08-17T05:32:59;5.78;;;2.55;;
76023;SDS011;64719;52.124;6.226;2023-08-17T05:35:25;4.90;;;2.25;;
76023;SDS011;64719;52.124;6.226;2023-08-17T05:37:52;4.97;;;2.47;;
76023;SDS011;64719;52.124;6.226;2023-08-17T05:40:20;6.07;;;2.28;;
76023;SDS011;64719;52.124;6.226;2023-08-17T05:42:46;4.38;;;2.13;;
76023;SDS011;64719;52.124;6.226;2023-08-17T05:45:13;5.28;;;2.50;;
76023;SDS011;64719;52.124;6.226;2023-08-17T05:47:39;4.97;;;2.50;;
76023;SDS011;64719;52.124;6.226;2023-08-17T05:50:06;5.65;;;2.30;;
76023;SDS011;64719;52.124;6.226;2023-08-17T05:52:33;5.25;;;2.42;;
76023;SDS011;64719;52.124;6.226;2023-08-17T05:55:00;2.95;;;1.92;;
76023;SDS011;64719;52.124;6.226;2023-08-17T05:57:28;4.38;;;2.10;;
76023;SDS011;64719;52.124;6.226;2023-08-17T05:59:55;5.45;;;2.08;;
76023;SDS011;64719;52.124;6.226;2023-08-17T06:02:21;5.68;;;2.00;;
76023;SDS011;64719;52.124;6.226;2023-08-17T06:04:48;4.60;;;2.15;;
76023;SDS011;64719;52.124;6.226;2023-08-17T06:07:14;4.40;;;1.80;;
76023;SDS011;64719;52.124;6.226;2023-08-17T06:09:41;3.70;;;2.50;;
76023;SDS011;64719;52.124;6.226;2023-08-17T06:12:08;4.30;;;2.35;;
76023;SDS011;64719;52.124;6.226;2023-08-17T06:14:36;8.38;;;2.50;;
76023;SDS011;64719;52.124;6.226;2023-08-17T06:17:03;5.20;;;2.25;;
76023;SDS011;64719;52.124;6.226;2023-08-17T06:19:29;3.05;;;2.50;;
76023;SDS011;64719;52.124;6.226;2023-08-17T06:21:56;5.03;;;2.50;;
76023;SDS011;64719;52.124;6.226;2023-08-17T06:24:23;7.45;;;2.20;;
76023;SDS011;64719;52.124;6.226;2023-08-17T06:26:49;4.13;;;1.95;;
76023;SDS011;64719;52.124;6.226;2023-08-17T06:29:16;6.05;;;2.10;;
76023;SDS011;64719;52.124;6.226;2023-08-17T06:31:44;6.15;;;1.85;;
76023;SDS011;64719;52.124;6.226;2023-08-17T06:36:37;3.58;;;1.90;;
76023;SDS011;64719;52.124;6.226;2023-08-17T06:39:04;5.25;;;2.22;;
76023;SDS011;64719;52.124;6.226;2023-08-17T06:41:31;3.92;;;1.92;;
76023;SDS011;64719;52.124;6.226;2023-08-17T06:43:57;4.88;;;2.25;;
76023;SDS011;64719;52.124;6.226;2023-08-17T06:46:24;4.07;;;2.17;;
76023;SDS011;64719;52.124;6.226;2023-08-17T06:48:54;6.65;;;2.50;;
76023;SDS011;64719;52.124;6.226;2023-08-17T06:53:47;4.50;;;2.03;;
76023;SDS011;64719;52.124;6.226;2023-08-17T06:56:14;3.92;;;1.98;;
76023;SDS011;64719;52.124;6.226;2023-08-17T06:58:40;4.63;;;2.13;;
76023;SDS011;64719;52.124;6.226;2023-08-17T07:01:07;4.18;;;2.20;;
76023;SDS011;64719;52.124;6.226;2023-08-17T07:03:33;5.35;;;2.28;;
76023;SDS011;64719;52.124;6.226;2023-08-17T07:06:01;3.42;;;2.35;;
76023;SDS011;64719;52.124;6.226;2023-08-17T07:08:29;4.13;;;1.85;;
76023;SDS011;64719;52.124;6.226;2023-08-17T07:10:55;4.57;;;2.35;;
76023;SDS011;64719;52.124;6.226;2023-08-17T07:13:22;3.45;;;2.10;;
76023;SDS011;64719;52.124;6.226;2023-08-17T07:15:48;4.03;;;2.10;;
76023;SDS011;64719;52.124;6.226;2023-08-17T07:18:15;7.10;;;2.00;;
76023;SDS011;64719;52.124;6.226;2023-08-17T07:20:41;5.20;;;2.10;;
76023;SDS011;64719;52.124;6.226;2023-08-17T07:23:09;5.53;;;2.58;;
76023;SDS011;64719;52.124;6.226;2023-08-17T07:28:02;8.43;;;2.72;;
76023;SDS011;64719;52.124;6.226;2023-08-17T07:30:29;6.10;;;2.65;;
76023;SDS011;64719;52.124;6.226;2023-08-17T07:32:56;4.68;;;2.05;;
76023;SDS011;64719;52.124;6.226;2023-08-17T07:35:23;3.47;;;2.22;;
76023;SDS011;64719;52.124;6.226;2023-08-17T07:37:49;4.60;;;2.20;;
76023;SDS011;64719;52.124;6.226;2023-08-17T07:40:17;3.70;;;2.47;;
76023;SDS011;64719;52.124;6.226;2023-08-17T07:42:45;6.10;;;2.53;;
76023;SDS011;64719;52.124;6.226;2023-08-17T07:45:11;3.85;;;2.00;;
76023;SDS011;64719;52.124;6.226;2023-08-17T07:47:38;5.35;;;2.30;;
76023;SDS011;64719;52.124;6.226;2023-08-17T07:50:05;4.03;;;2.30;;
76023;SDS011;64719;52.124;6.226;2023-08-17T07:57:27;5.47;;;2.45;;
76023;SDS011;64719;52.124;6.226;2023-08-17T08:02:20;4.82;;;2.25;;
76023;SDS011;64719;52.124;6.226;2023-08-17T08:04:46;4.90;;;2.47;;
76023;SDS011;64719;52.124;6.226;2023-08-17T08:07:13;5.57;;;2.33;;
76023;SDS011;64719;52.124;6.226;2023-08-17T08:09:39;7.53;;;2.20;;
76023;SDS011;64719;52.124;6.226;2023-08-17T08:12:06;4.13;;;2.28;;
76023;SDS011;64719;52.124;6.226;2023-08-17T08:14:35;4.82;;;2.50;;
76023;SDS011;64719;52.124;6.226;2023-08-17T08:24:21;5.03;;;2.60;;
76023;SDS011;64719;52.124;6.226;2023-08-17T08:26:47;6.30;;;2.95;;
76023;SDS011;64719;52.124;6.226;2023-08-17T08:29:16;4.97;;;2.38;;
76023;SDS011;64719;52.124;6.226;2023-08-17T08:31:44;8.93;;;3.00;;
76023;SDS011;64719;52.124;6.226;2023-08-17T08:34:10;5.68;;;2.30;;
76023;SDS011;64719;52.124;6.226;2023-08-17T08:36:37;4.82;;;2.47;;
76023;SDS011;64719;52.124;6.226;2023-08-17T08:39:03;6.30;;;2.50;;
76023;SDS011;64719;52.124;6.226;2023-08-17T08:41:30;5.20;;;2.70;;
76023;SDS011;64719;52.124;6.226;2023-08-17T08:43:58;6.32;;;2.55;;
76023;SDS011;64719;52.124;6.226;2023-08-17T08:46:24;6.85;;;2.38;;
76023;SDS011;64719;52.124;6.226;2023-08-17T08:48:57;5.50;;;2.60;;
76023;SDS011;64719;52.124;6.226;2023-08-17T08:51:26;4.00;;;2.45;;
76023;SDS011;64719;52.124;6.226;2023-08-17T08:53:57;4.85;;;2.72;;
76023;SDS011;64719;52.124;6.226;2023-08-17T08:56:27;4.78;;;3.10;;
76023;SDS011;64719;52.124;6.226;2023-08-17T08:58:57;7.75;;;2.95;;
76023;SDS011;64719;52.124;6.226;2023-08-17T09:01:27;5.57;;;3.47;;
76023;SDS011;64719;52.124;6.226;2023-08-17T09:03:57;7.47;;;3.33;;
76023;SDS011;64719;52.124;6.226;2023-08-17T09:06:25;5.85;;;3.00;;
76023;SDS011;64719;52.124;6.226;2023-08-17T09:08:53;7.03;;;3.53;;
76023;SDS011;64719;52.124;6.226;2023-08-17T09:11:20;9.90;;;3.90;;
76023;SDS011;64719;52.124;6.226;2023-08-17T09:13:46;13.38;;;3.75;;
76023;SDS011;64719;52.124;6.226;2023-08-17T09:16:13;12.43;;;3.78;;
76023;SDS011;64719;52.124;6.226;2023-08-17T09:18:39;7.82;;;3.30;;
76023;SDS011;64719;52.124;6.226;2023-08-17T09:21:08;10.70;;;4.00;;
76023;SDS011;64719;52.124;6.226;2023-08-17T09:23:49;9.93;;;3.50;;
76023;SDS011;64719;52.124;6.226;2023-08-17T09:26:17;7.85;;;3.67;;
76023;SDS011;64719;52.124;6.226;2023-08-17T09:28:45;7.22;;;3.83;;
76023;SDS011;64719;52.124;6.226;2023-08-17T09:31:12;9.48;;;4.20;;
76023;SDS011;64719;52.124;6.226;2023-08-17T09:33:40;7.95;;;3.83;;
76023;SDS011;64719;52.124;6.226;2023-08-17T09:36:09;7.50;;;3.80;;
76023;SDS011;64719;52.124;6.226;2023-08-17T09:38:37;7.43;;;3.90;;
76023;SDS011;64719;52.124;6.226;2023-08-17T09:41:04;9.95;;;4.57;;
76023;SDS011;64719;52.124;6.226;2023-08-17T09:43:31;8.13;;;4.00;;
76023;SDS011;64719;52.124;6.226;2023-08-17T09:45:59;8.88;;;4.68;;
76023;SDS011;64719;52.124;6.226;2023-08-17T09:48:27;8.10;;;3.85;;
76023;SDS011;64719;52.124;6.226;2023-08-17T09:50:55;7.18;;;4.07;;
76023;SDS011;64719;52.124;6.226;2023-08-17T09:53:24;9.65;;;4.10;;
76023;SDS011;64719;52.124;6.226;2023-08-17T09:55:51;9.20;;;3.60;;
76023;SDS011;64719;52.124;6.226;2023-08-17T09:58:20;7.78;;;4.13;;
76023;SDS011;64719;52.124;6.226;2023-08-17T10:00:47;7.13;;;4.30;;
76023;SDS011;64719;52.124;6.226;2023-08-17T10:03:15;8.02;;;4.35;;
76023;SDS011;64719;52.124;6.226;2023-08-17T10:05:51;7.60;;;4.40;;
76023;SDS011;64719;52.124;6.226;2023-08-17T10:08:22;6.25;;;4.07;;
76023;SDS011;64719;52.124;6.226;2023-08-17T10:10:50;7.43;;;4.63;;
76023;SDS011;64719;52.124;6.226;2023-08-17T10:13:19;8.07;;;4.70;;
76023;SDS011;64719;52.124;6.226;2023-08-17T10:15:55;8.70;;;3.97;;
76023;SDS011;64719;52.124;6.226;2023-08-17T10:18:29;8.27;;;5.07;;
76023;SDS011;64719;52.124;6.226;2023-08-17T10:21:02;7.15;;;4.85;;
76023;SDS011;64719;52.124;6.226;2023-08-17T10:23:32;8.05;;;4.20;;
76023;SDS011;64719;52.124;6.226;2023-08-17T10:26:01;9.63;;;4.13;;
76023;SDS011;64719;52.124;6.226;2023-08-17T10:28:28;7.22;;;3.92;;
76023;SDS011;64719;52.124;6.226;2023-08-17T10:30:57;7.80;;;4.60;;
76023;SDS011;64719;52.124;6.226;2023-08-17T10:33:24;7.32;;;4.22;;
76023;SDS011;64719;52.124;6.226;2023-08-17T10:35:51;7.97;;;4.25;;
76023;SDS011;64719;52.124;6.226;2023-08-17T10:38:18;8.30;;;4.30;;
76023;SDS011;64719;52.124;6.226;2023-08-17T10:40:45;7.18;;;4.10;;
76023;SDS011;64719;52.124;6.226;2023-08-17T10:43:55;7.90;;;4.60;;
76023;SDS011;64719;52.124;6.226;2023-08-17T10:46:31;9.30;;;5.00;;
76023;SDS011;64719;52.124;6.226;2023-08-17T10:49:03;7.32;;;3.95;;
76023;SDS011;64719;52.124;6.226;2023-08-17T10:51:31;7.10;;;4.28;;
76023;SDS011;64719;52.124;6.226;2023-08-17T10:53:58;7.20;;;4.65;;
76023;SDS011;64719;52.124;6.226;2023-08-17T10:56:29;10.43;;;5.40;;
76023;SDS011;64719;52.124;6.226;2023-08-17T10:58:58;9.25;;;5.07;;
76023;SDS011;64719;52.124;6.226;2023-08-17T11:01:32;10.95;;;5.43;;
76023;SDS011;64719;52.124;6.226;2023-08-17T11:04:10;7.35;;;5.00;;
76023;SDS011;64719;52.124;6.226;2023-08-17T11:06:38;8.60;;;4.80;;
76023;SDS011;64719;52.124;6.226;2023-08-17T11:09:06;8.27;;;4.95;;
76023;SDS011;64719;52.124;6.226;2023-08-17T11:11:35;9.43;;;5.68;;
76023;SDS011;64719;52.124;6.226;2023-08-17T11:14:02;8.43;;;5.22;;
76023;SDS011;64719;52.124;6.226;2023-08-17T11:16:28;8.43;;;5.28;;
76023;SDS011;64719;52.124;6.226;2023-08-17T11:18:55;7.50;;;5.20;;
76023;SDS011;64719;52.124;6.226;2023-08-17T11:21:23;8.98;;;4.90;;
76023;SDS011;64719;52.124;6.226;2023-08-17T11:23:50;9.82;;;5.25;;
76023;SDS011;64719;52.124;6.226;2023-08-17T11:26:17;7.00;;;4.88;;
76023;SDS011;64719;52.124;6.226;2023-08-17T11:28:46;6.90;;;5.05;;
76023;SDS011;64719;52.124;6.226;2023-08-17T11:31:13;7.63;;;4.80;;
76023;SDS011;64719;52.124;6.226;2023-08-17T11:33:40;8.25;;;4.40;;
76023;SDS011;64719;52.124;6.226;2023-08-17T11:36:07;7.20;;;4.65;;
76023;SDS011;64719;52.124;6.226;2023-08-17T11:38:35;8.88;;;4.57;;
76023;SDS011;64719;52.124;6.226;2023-08-17T11:41:03;7.10;;;4.47;;
76023;SDS011;64719;52.124;6.226;2023-08-17T11:43:30;6.68;;;4.32;;
76023;SDS011;64719;52.124;6.226;2023-08-17T11:45:59;6.72;;;4.32;;
76023;SDS011;64719;52.124;6.226;2023-08-17T11:48:26;6.47;;;4.85;;
76023;SDS011;64719;52.124;6.226;2023-08-17T11:50:53;7.65;;;5.07;;
76023;SDS011;64719;52.124;6.226;2023-08-17T11:53:20;7.88;;;4.93;;
76023;SDS011;64719;52.124;6.226;2023-08-17T11:55:47;7.95;;;4.60;;
76023;SDS011;64719;52.124;6.226;2023-08-17T11:58:14;7.35;;;5.35;;
76023;SDS011;64719;52.124;6.226;2023-08-17T12:00:41;8.85;;;5.20;;
76023;SDS011;64719;52.124;6.226;2023-08-17T12:03:14;6.85;;;4.43;;
76023;SDS011;64719;52.124;6.226;2023-08-17T12:05:41;8.88;;;4.88;;
76023;SDS011;64719;52.124;6.226;2023-08-17T12:08:09;7.43;;;4.80;;
76023;SDS011;64719;52.124;6.226;2023-08-17T12:10:36;12.20;;;5.20;;
76023;SDS011;64719;52.124;6.226;2023-08-17T12:13:03;6.55;;;4.55;;
76023;SDS011;64719;52.124;6.226;2023-08-17T12:15:30;5.75;;;4.50;;
76023;SDS011;64719;52.124;6.226;2023-08-17T12:17:58;8.07;;;4.80;;
76023;SDS011;64719;52.124;6.226;2023-08-17T12:20:27;7.13;;;4.55;;
76023;SDS011;64719;52.124;6.226;2023-08-17T12:22:56;6.28;;;4.45;;
76023;SDS011;64719;52.124;6.226;2023-08-17T12:25:23;6.50;;;4.40;;
76023;SDS011;64719;52.124;6.226;2023-08-17T12:27:50;7.75;;;4.60;;
76023;SDS011;64719;52.124;6.226;2023-08-17T12:30:23;6.85;;;4.75;;
76023;SDS011;64719;52.124;6.226;2023-08-17T12:32:51;7.20;;;4.97;;
76023;SDS011;64719;52.124;6.226;2023-08-17T12:35:17;8.38;;;5.10;;
76023;SDS011;64719;52.124;6.226;2023-08-17T12:37:47;6.72;;;4.63;;
76023;SDS011;64719;52.124;6.226;2023-08-17T12:42:41;8.20;;;5.30;;
76023;SDS011;64719;52.124;6.226;2023-08-17T12:45:08;8.77;;;6.10;;
76023;SDS011;64719;52.124;6.226;2023-08-17T12:47:35;7.82;;;5.07;;
76023;SDS011;64719;52.124;6.226;2023-08-17T12:50:02;7.57;;;5.22;;
76023;SDS011;64719;52.124;6.226;2023-08-17T12:52:29;7.05;;;5.47;;
76023;SDS011;64719;52.124;6.226;2023-08-17T12:54:57;8.95;;;5.57;;
76023;SDS011;64719;52.124;6.226;2023-08-17T12:57:23;7.18;;;5.85;;
76023;SDS011;64719;52.124;6.226;2023-08-17T13:02:19;9.55;;;5.88;;
76023;SDS011;64719;52.124;6.226;2023-08-17T13:04:45;8.63;;;6.00;;
76023;SDS011;64719;52.124;6.226;2023-08-17T13:07:12;7.22;;;5.82;;
76023;SDS011;64719;52.124;6.226;2023-08-17T13:09:39;8.10;;;5.95;;
76023;SDS011;64719;52.124;6.226;2023-08-17T13:12:07;7.85;;;5.60;;
76023;SDS011;64719;52.124;6.226;2023-08-17T13:14:33;8.57;;;6.15;;
76023;SDS011;64719;52.124;6.226;2023-08-17T13:17:00;8.80;;;5.72;;
76023;SDS011;64719;52.124;6.226;2023-08-17T13:19:26;16.20;;;7.63;;
76023;SDS011;64719;52.124;6.226;2023-08-17T13:21:53;8.32;;;6.60;;
76023;SDS011;64719;52.124;6.226;2023-08-17T13:24:20;8.65;;;6.50;;
76023;SDS011;64719;52.124;6.226;2023-08-17T13:26:46;11.18;;;7.22;;
76023;SDS011;64719;52.124;6.226;2023-08-17T13:29:19;9.27;;;6.43;;
76023;SDS011;64719;52.124;6.226;2023-08-17T13:31:46;8.50;;;6.53;;
76023;SDS011;64719;52.124;6.226;2023-08-17T13:34:13;8.68;;;6.85;;
76023;SDS011;64719;52.124;6.226;2023-08-17T13:36:39;8.65;;;6.55;;
76023;SDS011;64719;52.124;6.226;2023-08-17T13:39:06;8.63;;;6.35;;
76023;SDS011;64719;52.124;6.226;2023-08-17T13:41:33;8.15;;;6.82;;
76023;SDS011;64719;52.124;6.226;2023-08-17T13:43:59;9.52;;;6.78;;
76023;SDS011;64719;52.124;6.226;2023-08-17T13:48:55;11.65;;;6.88;;
76023;SDS011;64719;52.124;6.226;2023-08-17T13:51:21;10.55;;;7.65;;
76023;SDS011;64719;52.124;6.226;2023-08-17T13:53:48;12.60;;;7.32;;
76023;SDS011;64719;52.124;6.226;2023-08-17T13:56:14;10.80;;;8.10;;
76023;SDS011;64719;52.124;6.226;2023-08-17T13:58:42;10.98;;;7.50;;
76023;SDS011;64719;52.124;6.226;2023-08-17T14:01:09;10.55;;;8.70;;
76023;SDS011;64719;52.124;6.226;2023-08-17T14:03:37;10.48;;;8.23;;
76023;SDS011;64719;52.124;6.226;2023-08-17T14:06:04;10.25;;;8.13;;
76023;SDS011;64719;52.124;6.226;2023-08-17T14:08:31;11.98;;;8.63;;
76023;SDS011;64719;52.124;6.226;2023-08-17T14:10:57;10.02;;;8.35;;
76023;SDS011;64719;52.124;6.226;2023-08-17T14:13:25;11.85;;;9.27;;
76023;SDS011;64719;52.124;6.226;2023-08-17T14:15:52;11.05;;;8.70;;
76023;SDS011;64719;52.124;6.226;2023-08-17T14:18:21;11.50;;;8.27;;
76023;SDS011;64719;52.124;6.226;2023-08-17T14:20:49;11.82;;;8.88;;
76023;SDS011;64719;52.124;6.226;2023-08-17T14:25:42;11.77;;;8.93;;
76023;SDS011;64719;52.124;6.226;2023-08-17T14:28:08;13.13;;;9.15;;
76023;SDS011;64719;52.124;6.226;2023-08-17T14:30:35;12.02;;;8.27;;
76023;SDS011;64719;52.124;6.226;2023-08-17T14:33:01;12.50;;;8.95;;
76023;SDS011;64719;52.124;6.226;2023-08-17T14:35:28;11.95;;;8.45;;
76023;SDS011;64719;52.124;6.226;2023-08-17T14:37:56;12.95;;;9.13;;
76023;SDS011;64719;52.124;6.226;2023-08-17T14:40:25;10.27;;;8.93;;
76023;SDS011;64719;52.124;6.226;2023-08-17T14:42:52;11.02;;;9.00;;
76023;SDS011;64719;52.124;6.226;2023-08-17T14:45:19;10.48;;;8.60;;
76023;SDS011;64719;52.124;6.226;2023-08-17T14:47:45;13.40;;;9.48;;
76023;SDS011;64719;52.124;6.226;2023-08-17T14:50:12;12.23;;;8.77;;
76023;SDS011;64719;52.124;6.226;2023-08-17T14:52:39;12.38;;;9.18;;
76023;SDS011;64719;52.124;6.226;2023-08-17T14:55:07;12.20;;;8.88;;
76023;SDS011;64719;52.124;6.226;2023-08-17T14:57:34;11.23;;;8.98;;
76023;SDS011;64719;52.124;6.226;2023-08-17T15:00:00;11.20;;;9.45;;
76023;SDS011;64719;52.124;6.226;2023-08-17T15:02:29;13.10;;;9.13;;
76023;SDS011;64719;52.124;6.226;2023-08-17T15:04:56;11.98;;;8.93;;
76023;SDS011;64719;52.124;6.226;2023-08-17T15:07:22;13.90;;;10.68;;
76023;SDS011;64719;52.124;6.226;2023-08-17T15:09:49;14.07;;;10.70;;
76023;SDS011;64719;52.124;6.226;2023-08-17T15:12:17;14.20;;;10.75;;
76023;SDS011;64719;52.124;6.226;2023-08-17T15:19:37;15.32;;;10.38;;
76023;SDS011;64719;52.124;6.226;2023-08-17T15:22:04;14.98;;;11.90;;
76023;SDS011;64719;52.124;6.226;2023-08-17T15:24:31;17.00;;;11.88;;
76023;SDS011;64719;52.124;6.226;2023-08-17T15:26:57;16.80;;;11.98;;
76023;SDS011;64719;52.124;6.226;2023-08-17T15:29:25;17.00;;;12.80;;
76023;SDS011;64719;52.124;6.226;2023-08-17T15:41:38;16.83;;;12.73;;
76023;SDS011;64719;52.124;6.226;2023-08-17T15:44:04;16.83;;;12.35;;
76023;SDS011;64719;52.124;6.226;2023-08-17T15:46:33;17.40;;;11.85;;
76023;SDS011;64719;52.124;6.226;2023-08-17T15:49:00;19.77;;;12.00;;
76023;SDS011;64719;52.124;6.226;2023-08-17T15:51:27;19.25;;;12.75;;